Time;durP1;ratioP1;P1;durP2;ratioP2;P2;SDS_P1;SDS_P2;PMS_P1;PMS_P2;Temp;Humidity;BMP_temperature;BMP_pressure;BME280_temperature;BME280_humidity;BME280_pressure;Samples;Min_cycle;Max_cycle;Signal;HPM_P1;HPM_P2
2022/06/23 00:01:06;;;;;;;7.35;4.53;;;;;;;18.92;82.68;98957.78;5021940;28;20487;-55
2022/06/23 00:03:33;;;;;;;8.07;5.20;;;;;;;18.96;82.24;98958.81;5045067;28;20028;-56
2022/06/23 00:06:01;;;;;;;9.02;5.43;;;;;;;18.92;84.20;98952.34;5060480;28;20067;-56
2022/06/23 00:08:26;;;;;;;9.40;5.18;;;;;;;18.95;84.65;98949.06;5067866;28;20032;-56
2022/06/23 00:10:57;;;;;;;9.98;5.07;;;;;;;19.08;83.37;98945.50;5069071;28;20044;-57
2022/06/23 00:13:25;;;;;;;10.40;5.43;;;;;;;19.12;82.84;98941.06;5068651;28;20028;-56
2022/06/23 00:15:53;;;;;;;12.13;5.50;;;;;;;18.99;83.39;98939.19;5065535;28;20028;-57
2022/06/23 00:18:20;;;;;;;9.60;5.70;;;;;;;18.88;84.58;98943.22;5068255;28;20027;-56
2022/06/23 00:21:09;;;;;;;8.35;5.78;;;;;;;18.86;84.05;98945.44;5024203;28;20423;-55
2022/06/23 00:23:39;;;;;;;10.45;6.20;;;;;;;18.83;84.04;98943.34;5040687;28;20035;-56
2022/06/23 00:26:34;;;;;;;9.73;6.18;;;;;;;18.88;82.88;98935.88;5039795;28;20538;-56
2022/06/23 00:29:08;;;;;;;7.35;4.95;;;;;;;18.97;80.25;98933.28;5063875;28;20047;-56
2022/06/23 00:31:41;;;;;;;10.30;5.45;;;;;;;18.94;82.90;98929.22;5024045;28;20051;-56
2022/06/23 00:34:27;;;;;;;9.13;5.32;;;;;;;18.94;81.46;98933.84;5051165;28;20491;-56
2022/06/23 00:36:56;;;;;;;8.65;5.80;;;;;;;18.98;81.65;98924.00;5018384;28;20632;-56
2022/06/23 00:39:33;;;;;;;9.50;5.10;;;;;;;19.06;80.60;98919.75;5046142;28;20028;-56
2022/06/23 00:41:58;;;;;;;7.20;5.18;;;;;;;18.61;85.33;98914.19;5068197;28;20040;-57
2022/06/23 00:44:50;;;;;;;12.90;5.50;;;;;;;18.57;85.48;98907.72;5037984;28;20055;-56
2022/06/23 00:47:20;;;;;;;9.10;5.15;;;;;;;18.54;85.54;98907.22;5067996;28;20052;-56
2022/06/23 00:50:11;;;;;;;11.15;5.63;;;;;;;18.43;86.27;98913.19;5046029;28;20024;-56
2022/06/23 00:52:42;;;;;;;7.03;5.13;;;;;;;18.42;87.30;98911.56;5047600;28;20488;-55
2022/06/23 00:55:20;;;;;;;11.15;5.85;;;;;;;18.40;87.35;98913.78;5019919;28;20048;-57
2022/06/23 00:57:54;;;;;;;9.23;6.40;;;;;;;18.24;88.80;98921.41;5032787;28;20121;-57
2022/06/23 01:00:21;;;;;;;12.00;6.22;;;;;;;18.21;90.24;98917.38;5066807;28;20117;-57
2022/06/23 01:03:02;;;;;;;10.40;6.00;;;;;;;18.26;88.83;98930.84;5024599;28;20111;-55
2022/06/23 01:05:33;;;;;;;9.88;6.18;;;;;;;18.34;88.32;98932.06;5034897;28;20032;-60
2022/06/23 01:08:18;;;;;;;10.25;6.07;;;;;;;18.40;87.27;98932.78;5028079;28;20089;-55
2022/06/23 01:10:55;;;;;;;10.65;5.70;;;;;;;18.29;88.67;98924.03;5066424;28;20045;-56
2022/06/23 01:13:44;;;;;;;9.38;6.63;;;;;;;18.13;89.24;98923.50;5067919;28;20024;-55
2022/06/23 01:16:40;;;;;;;13.18;6.85;;;;;;;18.11;88.08;98926.50;5050856;28;20119;-56
2022/06/23 01:19:54;;;;;;;11.77;6.53;;;;;;;18.04;88.35;98928.81;5065899;28;20064;-57
2022/06/23 01:22:49;;;;;;;9.95;6.40;;;;;;;18.00;88.18;98933.25;4986412;28;20033;-55
2022/06/23 01:25:29;;;;;;;11.57;6.97;;;;;;;18.00;87.32;98935.94;5035123;28;20036;-56
2022/06/23 01:28:09;;;;;;;9.00;6.47;;;;;;;17.93;87.54;98932.03;5066810;28;20467;-56
2022/06/23 01:30:44;;;;;;;10.85;6.05;;;;;;;17.86;87.90;98925.06;5066429;28;20028;-55
2022/06/23 01:33:29;;;;;;;11.13;6.22;;;;;;;17.72;88.34;98934.22;5049996;28;20028;-56
2022/06/23 01:36:05;;;;;;;9.13;6.57;;;;;;;17.75;87.00;98931.75;5044398;28;20103;-56
2022/06/23 01:38:46;;;;;;;8.20;6.43;;;;;;;17.71;87.75;98936.13;5050313;28;20069;-54
2022/06/23 01:41:58;;;;;;;8.95;6.22;;;;;;;17.74;87.39;98940.16;5046460;28;20037;-56
2022/06/23 01:44:42;;;;;;;9.70;6.65;;;;;;;17.58;88.65;98939.63;5042333;28;20163;-56
2022/06/23 01:47:36;;;;;;;8.68;6.85;;;;;;;17.53;89.13;98940.50;5049770;28;20036;-56
2022/06/23 01:50:13;;;;;;;12.43;7.30;;;;;;;17.43;89.68;98937.94;5044061;28;20021;-55
2022/06/23 01:52:44;;;;;;;11.07;6.80;;;;;;;17.37;89.90;98934.53;5067457;28;20047;-55
2022/06/23 01:55:26;;;;;;;9.40;7.07;;;;;;;17.30;90.37;98931.38;5068642;28;20016;-56
2022/06/23 01:58:02;;;;;;;9.95;7.10;;;;;;;17.38;89.81;98936.13;5049362;28;20035;-55
2022/06/23 02:00:27;;;;;;;10.68;7.05;;;;;;;17.37;89.59;98937.22;5044822;28;20043;-56
2022/06/23 02:02:52;;;;;;;10.85;7.10;;;;;;;17.41;89.45;98940.94;5039968;28;20029;-57
2022/06/23 02:05:27;;;;;;;14.38;7.78;;;;;;;17.34;89.57;98943.22;5070254;28;20025;-56
2022/06/23 02:08:09;;;;;;;8.07;6.85;;;;;;;17.41;88.54;98938.22;5070214;28;20491;-57
2022/06/23 02:10:40;;;;;;;14.93;7.75;;;;;;;17.50;88.01;98934.84;5067102;28;20041;-56
2022/06/23 02:13:08;;;;;;;11.07;7.03;;;;;;;17.34;88.76;98932.38;5038034;28;20078;-56
2022/06/23 02:16:01;;;;;;;14.30;7.63;;;;;;;17.34;88.54;98937.78;5053792;28;20464;-55
2022/06/23 02:19:00;;;;;;;11.45;7.95;;;;;;;17.32;88.89;98945.41;5065898;28;20710;-57
2022/06/23 02:21:32;;;;;;;8.02;6.80;;;;;;;17.29;89.04;98953.31;5067301;28;20024;-56
2022/06/23 02:24:26;;;;;;;12.07;8.02;;;;;;;17.08;91.00;98950.91;5035729;28;20013;-55
2022/06/23 02:27:12;;;;;;;15.35;8.27;;;;;;;17.17;90.75;98959.16;5068807;28;20032;-55
2022/06/23 02:30:02;;;;;;;15.80;8.45;;;;;;;17.15;90.92;98964.09;5047417;28;20123;-56
2022/06/23 02:32:54;;;;;;;12.73;8.68;;;;;;;16.89;92.55;98953.59;5068812;28;20032;-56
2022/06/23 02:35:41;;;;;;;14.13;8.98;;;;;;;16.81;91.59;98954.25;5044162;28;20028;-56
2022/06/23 02:38:12;;;;;;;13.48;8.77;;;;;;;16.60;91.59;98962.56;5054541;28;20132;-56
2022/06/23 02:40:45;;;;;;;13.95;7.13;;;;;;;16.56;92.47;98960.72;5037383;28;20098;-56
2022/06/23 02:43:36;;;;;;;10.88;7.05;;;;;;;16.57;91.95;98963.16;5053961;28;20048;-56
2022/06/23 02:46:35;;;;;;;9.45;7.25;;;;;;;16.41;93.91;98959.00;5069803;28;20059;-54
2022/06/23 02:49:11;;;;;;;13.90;7.80;;;;;;;16.61;93.67;98952.56;5064584;28;20345;-55
2022/06/23 02:52:10;;;;;;;17.35;9.23;;;;;;;16.74;94.40;98956.47;5048077;28;20028;-55
2022/06/23 02:54:58;;;;;;;14.57;8.63;;;;;;;16.90;93.82;98949.81;5069458;28;20027;-56
2022/06/23 02:57:36;;;;;;;13.40;7.82;;;;;;;16.94;91.95;98953.50;5041017;28;20663;-56
2022/06/23 03:00:22;;;;;;;9.05;6.90;;;;;;;16.73;91.30;98954.84;5069994;28;20518;-56
2022/06/23 03:02:50;;;;;;;11.07;7.38;;;;;;;16.54;90.99;98955.59;5069780;28;20095;-56
2022/06/23 03:05:34;;;;;;;12.07;7.85;;;;;;;16.46;92.45;98952.75;5065667;28;20077;-55
2022/06/23 03:08:08;;;;;;;10.65;8.35;;;;;;;16.43;94.15;98962.22;5067892;28;20016;-55
2022/06/23 03:10:38;;;;;;;13.38;7.57;;;;;;;16.51;93.42;98963.50;5064970;28;20055;-56
2022/06/23 03:13:26;;;;;;;14.02;8.15;;;;;;;16.52;94.20;98968.59;5058759;28;20177;-56
2022/06/23 03:16:18;;;;;;;12.43;8.30;;;;;;;16.62;93.75;98975.81;5068371;28;20394;-56
2022/06/23 03:18:55;;;;;;;12.60;8.77;;;;;;;16.54;94.72;98969.13;5070011;28;20024;-55
2022/06/23 03:21:28;;;;;;;15.13;9.57;;;;;;;16.62;95.11;98970.38;5069227;28;20029;-55
2022/06/23 03:24:27;;;;;;;17.48;9.80;;;;;;;16.74;97.67;98967.28;5050023;28;20025;-56
2022/06/23 03:27:04;;;;;;;11.38;7.97;;;;;;;16.63;93.65;98971.22;5066155;28;20048;-55
2022/06/23 03:29:52;;;;;;;14.23;7.47;;;;;;;16.43;92.28;98978.47;5042756;28;20044;-56
2022/06/23 03:32:21;;;;;;;11.27;7.22;;;;;;;16.59;91.09;98970.97;5033304;28;21340;-56
2022/06/23 03:34:55;;;;;;;10.30;7.30;;;;;;;16.45;90.42;98970.88;5050783;28;20025;-56
2022/06/23 03:37:31;;;;;;;13.10;7.43;;;;;;;16.65;91.47;98969.00;5050794;28;20051;-57
2022/06/23 03:43:18;;;;;;;9.15;6.18;;;;;;;18.24;82.61;98965.59;5042919;28;20493;-56
2022/06/23 03:45:58;;;;;;;17.67;7.00;;;;;;;18.60;80.51;98977.72;5068881;28;20102;-55
2022/06/23 03:48:31;;;;;;;13.65;6.57;;;;;;;18.86;79.64;98978.03;5043879;28;20021;-56
2022/06/23 03:51:05;;;;;;;15.25;8.82;;;;;;;19.39;77.61;98985.56;5069395;28;20032;-56
2022/06/23 03:53:39;;;;;;;9.43;6.20;;;;;;;19.78;75.36;98978.72;5026702;28;20021;-54
2022/06/23 03:56:10;;;;;;;10.68;5.70;;;;;;;19.49;74.54;98982.59;5064720;28;20527;-56
2022/06/23 03:58:50;;;;;;;11.25;7.53;;;;;;;19.53;75.94;98978.19;5044851;28;20124;-56
2022/06/23 04:01:18;;;;;;;15.15;10.13;;;;;;;19.46;77.77;98975.06;5068135;28;20056;-57
2022/06/23 04:03:57;;;;;;;12.98;9.52;;;;;;;19.59;77.53;98981.56;5068528;28;20025;-57
2022/06/23 04:06:34;;;;;;;12.32;8.50;;;;;;;20.67;73.07;98982.41;5066844;28;20064;-56
2022/06/23 04:09:13;;;;;;;16.02;6.93;;;;;;;21.53;68.75;98987.22;5067423;28;20479;-56
2022/06/23 04:12:07;;;;;;;11.60;5.15;;;;;;;20.63;68.51;98984.16;5042379;28;20048;-57
2022/06/23 04:14:49;;;;;;;10.75;5.88;;;;;;;20.91;68.30;98982.00;5048999;28;20098;-56
2022/06/23 04:17:44;;;;;;;10.25;5.88;;;;;;;19.54;74.85;98985.22;5047333;28;20521;-56
2022/06/23 04:20:27;;;;;;;8.07;5.75;;;;;;;20.63;70.77;98986.88;5043246;28;20033;-56
2022/06/23 04:23:00;;;;;;;12.65;6.18;;;;;;;20.73;70.37;98986.59;5047799;28;20248;-56
2022/06/23 04:25:39;;;;;;;11.40;6.07;;;;;;;22.39;64.58;98995.66;5043652;28;20025;-56
2022/06/23 04:28:04;;;;;;;8.80;5.70;;;;;;;23.50;60.40;98988.28;5043581;28;20035;-56
2022/06/23 04:30:34;;;;;;;10.68;5.82;;;;;;;23.29;60.54;98991.81;5031833;28;20550;-57
2022/06/23 04:33:00;;;;;;;;;;;;;;;22.56;63.10;98998.28;5036476;28;20027;-57
2022/06/23 04:35:27;;;;;;;7.20;5.63;;;;;;;23.83;59.63;98989.13;5047907;28;19920;-57
2022/06/23 04:38:12;;;;;;;11.75;5.90;;;;;;;23.78;59.91;98996.75;5037180;28;20050;-57
2022/06/23 04:40:39;;;;;;;10.15;5.90;;;;;;;23.93;58.89;99001.59;5038104;28;20465;-57
2022/06/23 04:43:34;;;;;;;8.23;5.18;;;;;;;24.01;58.27;99005.41;5047736;28;20115;-57
2022/06/23 04:46:09;;;;;;;11.07;5.60;;;;;;;23.40;59.83;99006.69;5049111;28;20036;-56
2022/06/23 04:48:52;;;;;;;11.32;5.40;;;;;;;23.79;59.29;99007.38;5047242;28;20024;-57
2022/06/23 04:51:54;;;;;;;10.65;5.55;;;;;;;24.14;57.79;99017.19;5012722;28;20040;-56
2022/06/23 04:54:35;;;;;;;13.25;5.60;;;;;;;25.43;54.13;99024.94;5021414;28;20088;-56
2022/06/23 04:57:04;;;;;;;9.13;5.40;;;;;;;24.97;55.59;99021.56;5031518;28;20040;-57
2022/06/23 04:59:53;;;;;;;9.52;5.13;;;;;;;25.02;56.53;99034.25;5046257;28;20092;-57
2022/06/23 05:02:30;;;;;;;11.32;5.65;;;;;;;25.71;52.71;99032.41;5041608;28;20434;-56
2022/06/23 05:05:15;;;;;;;12.45;5.25;;;;;;;26.35;51.99;99033.41;5031074;28;20310;-57
2022/06/23 05:08:11;;;;;;;12.00;5.30;;;;;;;25.86;53.96;99031.72;5048210;28;20029;-57
2022/06/23 05:11:13;;;;;;;10.77;5.60;;;;;;;26.77;51.23;99038.44;5021252;28;20048;-57
2022/06/23 05:13:53;;;;;;;10.50;5.50;;;;;;;27.28;51.00;99031.03;4996771;28;20041;-57
2022/06/23 05:16:28;;;;;;;10.15;5.10;;;;;;;27.24;49.62;99032.91;5043340;28;20037;-57
2022/06/23 05:18:55;;;;;;;9.65;5.10;;;;;;;27.23;50.12;99045.09;5042371;28;20071;-57
2022/06/23 05:21:26;;;;;;;15.55;5.85;;;;;;;28.39;47.47;99026.97;5015844;28;20068;-57
2022/06/23 05:23:59;;;;;;;13.57;5.75;;;;;;;27.95;48.26;99035.59;5024397;28;20025;-56
2022/06/23 05:26:28;;;;;;;13.10;5.90;;;;;;;28.00;47.39;99031.75;5017516;28;20037;-57
2022/06/23 05:29:00;;;;;;;21.92;6.15;;;;;;;28.43;45.94;99033.38;5006193;28;20036;-57
2022/06/23 05:31:28;;;;;;;24.63;6.25;;;;;;;28.18;46.29;99033.72;5054117;28;20399;-57
2022/06/23 05:33:54;;;;;;;18.98;5.97;;;;;;;28.28;46.46;99032.31;5052780;28;20086;-55
2022/06/23 05:36:22;;;;;;;14.25;5.97;;;;;;;29.04;44.40;99032.41;5055076;28;20492;-57
2022/06/23 05:38:57;;;;;;;16.03;6.00;;;;;;;29.29;44.22;99034.78;5011243;28;20025;-56
2022/06/23 05:41:30;;;;;;;18.17;5.82;;;;;;;28.89;45.63;99038.88;5054372;28;20329;-55
2022/06/23 05:43:56;;;;;;;13.75;5.75;;;;;;;29.59;43.49;99026.50;5057441;28;20082;-57
2022/06/23 05:46:22;;;;;;;15.00;5.40;;;;;;;30.04;42.93;99026.69;5038932;28;20036;-57
2022/06/23 05:48:56;;;;;;;23.98;6.07;;;;;;;29.97;43.23;99034.88;5003513;28;20411;-58
2022/06/23 05:51:34;;;;;;;22.00;5.55;;;;;;;30.57;41.85;99039.47;5050790;28;20083;-57
2022/06/23 05:54:04;;;;;;;21.20;6.15;;;;;;;30.46;41.74;99039.38;5022770;28;20111;-57
2022/06/23 05:56:58;;;;;;;17.30;5.38;;;;;;;29.96;43.08;99036.84;5033848;28;20383;-56
2022/06/23 05:59:31;;;;;;;25.20;5.93;;;;;;;30.87;41.13;99031.06;5051268;28;20498;-57
2022/06/23 06:02:10;;;;;;;30.98;6.32;;;;;;;30.55;41.64;99047.34;5052802;28;20431;-57
2022/06/23 06:04:51;;;;;;;21.08;6.07;;;;;;;30.44;42.08;99030.66;5052645;28;20102;-58
2022/06/23 06:07:20;;;;;;;19.55;5.95;;;;;;;31.13;41.04;99035.59;5029958;28;20024;-59
2022/06/23 06:09:45;;;;;;;;;;;;;;;31.02;41.31;99027.22;5025992;28;20041;-57
2022/06/23 06:12:36;;;;;;;18.50;5.75;;;;;;;31.14;41.09;99029.66;5074068;28;19994;-57
2022/06/23 06:15:06;;;;;;;18.10;5.18;;;;;;;30.53;42.42;99029.19;5070449;28;20029;-58
2022/06/23 06:17:32;;;;;;;21.00;5.43;;;;;;;32.06;39.56;99026.97;5044710;28;20111;-57
2022/06/23 06:19:59;;;;;;;22.42;5.85;;;;;;;30.85;41.61;99023.16;5054868;28;20077;-57
2022/06/23 06:22:46;;;;;;;16.97;5.60;;;;;;;32.31;39.30;99030.59;5053148;28;20047;-57
2022/06/23 06:25:27;;;;;;;23.33;5.65;;;;;;;32.05;39.79;99019.84;5067391;28;20031;-57
2022/06/23 06:27:54;;;;;;;20.75;6.28;;;;;;;31.91;40.00;99026.13;5072806;28;20110;-57
2022/06/23 06:30:22;;;;;;;22.55;5.90;;;;;;;31.35;40.81;99023.47;5055271;28;20017;-57
2022/06/23 06:32:48;;;;;;;24.00;5.72;;;;;;;32.36;38.53;99019.13;5055418;28;20099;-57
2022/06/23 06:35:25;;;;;;;23.05;5.88;;;;;;;31.62;40.89;99023.22;5073983;28;20478;-57
2022/06/23 06:38:12;;;;;;;28.17;6.05;;;;;;;31.66;40.60;99026.03;5055905;28;20035;-58
2022/06/23 06:40:38;;;;;;;16.92;6.07;;;;;;;31.73;40.92;99026.06;5065026;28;20119;-57
2022/06/23 06:43:06;;;;;;;26.92;6.13;;;;;;;32.50;39.47;99012.00;5070238;28;20025;-57
2022/06/23 06:45:33;;;;;;;21.52;6.00;;;;;;;32.45;39.87;99015.94;5051480;28;20566;-55
2022/06/23 06:47:58;;;;;;;14.30;5.82;;;;;;;32.13;40.41;99007.59;5040824;28;20108;-55
2022/06/23 06:50:44;;;;;;;16.38;6.00;;;;;;;33.05;38.87;99003.28;5068339;28;20438;-56
2022/06/23 06:53:20;;;;;;;21.42;5.88;;;;;;;31.10;42.70;99011.44;5053217;28;20106;-56
2022/06/23 06:55:51;;;;;;;22.35;6.35;;;;;;;32.97;38.40;99013.56;5069409;28;20391;-55
2022/06/23 06:58:21;;;;;;;24.08;5.75;;;;;;;32.38;40.09;99016.75;5048348;28;20036;-57
2022/06/23 07:00:51;;;;;;;23.55;6.18;;;;;;;33.28;38.57;99023.09;5022849;28;20028;-56
2022/06/23 07:03:18;;;;;;;25.38;6.57;;;;;;;33.32;38.04;99025.06;5023991;28;20037;-56
2022/06/23 07:06:00;;;;;;;21.90;6.25;;;;;;;33.30;38.71;99015.16;5036772;28;20082;-57
2022/06/23 07:08:56;;;;;;;17.63;5.70;;;;;;;33.64;37.87;99022.97;5051854;28;20033;-57
2022/06/23 07:11:47;;;;;;;24.60;6.63;;;;;;;32.93;39.44;99028.69;5053153;28;20143;-57
2022/06/23 07:14:31;;;;;;;18.92;6.10;;;;;;;33.24;38.47;99021.50;5024770;28;20028;-57
2022/06/23 07:17:32;;;;;;;24.00;6.53;;;;;;;34.18;37.18;99030.31;5041083;28;20149;-56
2022/06/23 07:20:04;;;;;;;21.58;5.82;;;;;;;34.32;36.58;99022.66;5037777;28;20044;-57
2022/06/23 07:22:33;;;;;;;27.77;5.97;;;;;;;33.05;38.79;99022.72;5045552;28;20032;-57
2022/06/23 07:25:12;;;;;;;18.27;5.53;;;;;;;34.08;37.34;99024.41;5047296;28;20024;-56
2022/06/23 07:27:47;;;;;;;26.42;6.00;;;;;;;33.28;38.47;99028.63;5070447;28;20032;-57
2022/06/23 07:30:32;;;;;;;20.65;6.07;;;;;;;34.17;37.45;99021.16;5054533;28;20475;-57
2022/06/23 07:33:03;;;;;;;19.27;6.22;;;;;;;33.88;37.10;99014.94;5063590;28;20071;-56
2022/06/23 07:35:37;;;;;;;19.67;5.63;;;;;;;34.13;37.36;99015.63;5051005;28;20347;-57
2022/06/23 07:38:12;;;;;;;24.63;5.40;;;;;;;35.11;35.85;99015.69;5069841;28;20025;-56
2022/06/23 07:40:56;;;;;;;23.40;6.25;;;;;;;34.32;36.82;99021.84;5060006;28;20147;-56
2022/06/23 07:43:49;;;;;;;21.52;5.32;;;;;;;34.29;36.89;99017.09;5070165;28;20074;-57
2022/06/23 07:46:14;;;;;;;29.75;6.40;;;;;;;34.28;37.06;99016.31;5065781;28;20394;-56
2022/06/23 07:48:40;;;;;;;29.65;6.13;;;;;;;32.81;38.87;99014.00;5067538;28;20025;-57
2022/06/23 07:51:07;;;;;;;21.35;5.95;;;;;;;34.45;37.06;99006.28;5051128;28;20086;-56
2022/06/23 07:53:46;;;;;;;30.55;5.97;;;;;;;34.93;36.03;99013.84;5051052;28;20029;-56
2022/06/23 07:56:19;;;;;;;34.35;6.18;;;;;;;34.94;35.94;99015.41;5068205;28;20112;-56
2022/06/23 07:58:46;;;;;;;32.60;6.18;;;;;;;34.78;36.03;99004.03;5046723;28;20025;-56
2022/06/23 08:01:21;;;;;;;27.80;6.13;;;;;;;34.45;36.70;99008.25;5021180;28;20040;-56
2022/06/23 08:03:53;;;;;;;28.42;5.95;;;;;;;35.05;36.21;99000.59;5050497;28;20040;-56
2022/06/23 08:06:21;;;;;;;20.17;5.25;;;;;;;34.28;36.32;99009.97;5055379;28;20046;-56
2022/06/23 08:08:47;;;;;;;13.65;5.35;;;;;;;31.33;40.33;99008.44;5068384;28;20029;-56
2022/06/23 08:14:19;;;;;;;14.80;5.50;;;;;;;31.87;40.57;99006.69;5054686;28;20126;-56
2022/06/23 08:16:50;;;;;;;13.93;6.00;;;;;;;31.95;41.13;99000.03;5029246;28;20463;-56
2022/06/23 08:19:41;;;;;;;14.35;5.35;;;;;;;32.25;40.22;98993.34;5026745;28;20100;-55
2022/06/23 08:22:21;;;;;;;19.10;5.70;;;;;;;31.38;40.52;98988.69;5067776;28;20439;-55
2022/06/23 08:24:48;;;;;;;12.70;5.82;;;;;;;29.70;45.12;98988.00;5046996;28;20035;-56
2022/06/23 08:27:28;;;;;;;12.38;5.50;;;;;;;30.46;42.20;98984.09;5068439;28;20360;-57
2022/06/23 08:29:56;;;;;;;14.48;5.45;;;;;;;28.99;44.64;98985.84;5052124;28;20032;-56
2022/06/23 08:32:22;;;;;;;16.17;5.65;;;;;;;29.28;43.80;98994.56;5041788;28;20017;-58
2022/06/23 08:35:08;;;;;;;14.98;5.43;;;;;;;31.05;41.88;98984.94;5032005;28;20043;-56
2022/06/23 08:38:01;;;;;;;14.73;6.05;;;;;;;29.21;46.17;98977.91;5024684;28;20036;-57
2022/06/23 08:40:48;;;;;;;16.55;5.95;;;;;;;28.94;46.36;98980.63;5046136;28;20036;-56
2022/06/23 08:43:13;;;;;;;12.13;5.45;;;;;;;30.60;43.72;98978.66;5065226;28;20056;-56
2022/06/23 08:45:49;;;;;;;17.48;6.00;;;;;;;29.36;45.77;98979.69;5067760;28;20074;-55
2022/06/23 08:48:22;;;;;;;12.65;5.60;;;;;;;31.20;42.83;98976.72;5035548;28;20020;-56
2022/06/23 08:51:01;;;;;;;17.00;6.05;;;;;;;29.24;44.31;98977.16;5066669;28;20024;-55
2022/06/23 08:53:28;;;;;;;;;;;;;;;28.31;45.63;98976.47;5046423;28;20039;-55
2022/06/23 08:55:59;;;;;;;12.43;5.47;;;;;;;29.18;42.96;98973.94;5049756;28;19917;-55
2022/06/23 08:58:29;;;;;;;11.25;5.43;;;;;;;27.26;48.10;98966.53;5046677;28;20056;-54
2022/06/23 09:00:58;;;;;;;13.85;5.25;;;;;;;28.38;46.39;98973.00;5067757;28;20044;-55
2022/06/23 09:03:36;;;;;;;11.25;5.20;;;;;;;29.49;43.33;98971.94;5067111;28;20027;-56
2022/06/23 09:06:14;;;;;;;17.02;5.53;;;;;;;27.94;45.84;98965.97;5062640;28;20141;-54
2022/06/23 09:08:44;;;;;;;10.15;4.50;;;;;;;28.70;44.62;98959.78;5066488;28;20111;-56
2022/06/23 09:11:41;;;;;;;16.38;5.85;;;;;;;28.59;45.35;98958.84;5046636;28;20036;-56
2022/06/23 09:14:44;;;;;;;11.95;5.80;;;;;;;27.99;46.45;98964.88;5033781;28;20051;-56
2022/06/23 09:17:18;;;;;;;14.57;5.47;;;;;;;29.42;43.71;98960.81;5065933;28;20386;-56
2022/06/23 09:20:08;;;;;;;14.07;5.20;;;;;;;29.38;43.90;98959.97;5066647;28;20502;-55
2022/06/23 09:22:55;;;;;;;13.80;5.03;;;;;;;28.63;44.00;98958.88;5066139;28;20025;-56
2022/06/23 09:25:52;;;;;;;11.50;4.53;;;;;;;28.96;44.80;98947.97;5067292;28;20405;-56
2022/06/23 09:28:24;;;;;;;12.98;5.40;;;;;;;28.53;45.21;98944.56;5049849;28;20032;-56
2022/06/23 09:31:12;;;;;;;15.18;4.97;;;;;;;28.73;45.05;98941.69;5065459;28;20502;-56
2022/06/23 09:33:40;;;;;;;18.60;4.80;;;;;;;29.30;44.03;98950.81;5033890;28;20033;-56
2022/06/23 09:36:34;;;;;;;10.70;4.70;;;;;;;30.48;43.14;98940.25;5061172;28;20379;-56
2022/06/23 09:39:07;;;;;;;10.93;4.78;;;;;;;29.73;42.27;98940.31;5066770;28;20031;-56
2022/06/23 09:41:51;;;;;;;12.65;4.78;;;;;;;27.74;45.61;98937.63;5058447;28;20056;-56
2022/06/23 09:44:41;;;;;;;13.93;4.57;;;;;;;28.41;44.45;98941.97;5068173;28;20051;-55
2022/06/23 09:47:32;;;;;;;12.85;4.93;;;;;;;27.91;46.62;98941.13;5050038;28;20096;-56
2022/06/23 09:50:29;;;;;;;10.85;4.95;;;;;;;29.37;44.46;98941.81;5047526;28;20025;-55
2022/06/23 09:53:14;;;;;;;12.88;5.30;;;;;;;29.76;43.25;98942.31;5066345;28;20481;-56
2022/06/23 09:56:21;;;;;;;9.93;4.85;;;;;;;29.98;44.58;98931.47;5064305;28;20119;-55
2022/06/23 09:58:53;;;;;;;10.82;5.30;;;;;;;30.21;43.57;98934.09;4991831;28;20165;-55
2022/06/23 10:01:42;;;;;;;13.38;4.95;;;;;;;29.64;44.38;98928.75;5063206;28;20029;-55
2022/06/23 10:04:45;;;;;;;13.05;5.05;;;;;;;28.53;46.85;98938.25;5046287;28;20052;-55
2022/06/23 10:07:26;;;;;;;12.60;5.55;;;;;;;28.02;48.81;98931.06;5064505;28;20023;-55
2022/06/23 10:09:57;;;;;;;14.32;5.53;;;;;;;29.01;46.34;98936.63;5054098;28;20045;-55
2022/06/23 10:12:47;;;;;;;16.45;5.57;;;;;;;29.04;46.18;98930.34;5066939;28;20509;-54
2022/06/23 10:15:12;;;;;;;14.02;5.43;;;;;;;29.75;44.67;98924.16;5064390;28;20108;-56
2022/06/23 10:17:58;;;;;;;14.18;5.50;;;;;;;29.72;45.47;98924.91;5070611;28;20432;-55
2022/06/23 10:20:39;;;;;;;13.13;5.20;;;;;;;29.03;46.06;98933.47;5067934;28;20158;-55
2022/06/23 10:23:20;;;;;;;17.70;5.40;;;;;;;28.75;46.57;98928.34;5049375;28;20108;-55
2022/06/23 10:26:17;;;;;;;15.60;5.75;;;;;;;29.16;46.34;98925.81;5058877;28;20668;-54
2022/06/23 10:28:51;;;;;;;15.80;5.93;;;;;;;28.35;47.62;98926.91;5050043;28;20410;-55
2022/06/23 10:31:20;;;;;;;15.18;6.45;;;;;;;28.05;48.94;98924.81;5070837;28;20111;-55
2022/06/23 10:34:05;;;;;;;11.10;6.25;;;;;;;29.34;47.14;98918.53;5070657;28;20078;-54
2022/06/23 10:37:01;;;;;;;17.92;7.00;;;;;;;28.00;49.21;98916.06;5059505;28;20548;-53
2022/06/23 10:39:37;;;;;;;15.40;6.53;;;;;;;28.54;48.35;98907.56;5069286;28;20048;-55
2022/06/23 10:42:23;;;;;;;15.75;5.75;;;;;;;27.99;49.25;98909.78;5035821;28;20008;-55
2022/06/23 10:45:10;;;;;;;13.32;5.05;;;;;;;28.88;45.54;98904.91;5068459;28;20082;-55
2022/06/23 10:47:36;;;;;;;14.80;5.90;;;;;;;28.52;47.12;98909.88;5060609;28;20036;-55
2022/06/23 10:50:30;;;;;;;13.82;6.20;;;;;;;29.10;48.01;98902.47;5069912;28;20021;-54
2022/06/23 10:52:59;;;;;;;17.50;6.20;;;;;;;27.94;49.96;98901.81;5067932;28;20100;-55
2022/06/23 10:55:30;;;;;;;15.63;7.38;;;;;;;27.62;50.20;98896.50;5052740;28;20115;-55
2022/06/23 10:58:26;;;;;;;14.88;5.88;;;;;;;27.69;51.48;98893.09;5051057;28;20083;-57
2022/06/23 11:01:07;;;;;;;17.80;5.90;;;;;;;28.70;47.83;98904.63;5012801;28;20403;-55
2022/06/23 11:04:05;;;;;;;14.15;5.93;;;;;;;28.75;47.82;98911.78;5048820;28;20514;-57
2022/06/23 11:07:09;;;;;;;10.27;6.10;;;;;;;28.91;47.28;98897.84;5044831;28;20108;-55
2022/06/23 11:09:35;;;;;;;14.32;6.35;;;;;;;28.76;46.82;98897.66;5051689;28;20051;-56
2022/06/23 11:12:23;;;;;;;15.15;6.25;;;;;;;28.31;49.29;98898.53;5068156;28;20471;-55
2022/06/23 11:15:26;;;;;;;15.03;6.13;;;;;;;29.12;46.65;98881.59;5067819;28;20040;-55
2022/06/23 11:18:13;;;;;;;14.73;6.32;;;;;;;29.40;46.28;98883.91;5066557;28;20311;-54
2022/06/23 11:20:57;;;;;;;16.10;6.43;;;;;;;28.92;47.94;98886.44;5063312;28;20074;-55
2022/06/23 11:23:51;;;;;;;15.90;6.32;;;;;;;28.44;48.38;98880.59;5067148;28;20016;-55
2022/06/23 11:26:49;;;;;;;14.23;6.60;;;;;;;28.18;50.39;98884.94;5068113;28;20033;-55
2022/06/23 11:29:27;;;;;;;14.18;6.57;;;;;;;28.47;48.38;98879.88;5051067;28;20028;-55
2022/06/23 11:32:26;;;;;;;16.92;6.55;;;;;;;28.95;48.02;98882.91;5065351;28;20036;-54
2022/06/23 11:35:12;;;;;;;15.90;6.68;;;;;;;28.81;48.70;98877.22;5068923;28;20025;-55
2022/06/23 11:38:00;;;;;;;14.73;6.45;;;;;;;28.72;48.34;98879.47;5066641;28;20296;-54
2022/06/23 11:40:50;;;;;;;16.70;6.50;;;;;;;28.33;48.59;98868.59;5045237;28;20394;-54
2022/06/23 11:43:28;;;;;;;17.13;6.22;;;;;;;28.66;48.64;98869.94;5070626;28;20024;-53
2022/06/23 11:46:13;;;;;;;17.20;6.18;;;;;;;29.22;47.82;98875.41;5042729;28;20021;-54
2022/06/23 11:48:41;;;;;;;14.32;7.20;;;;;;;29.35;46.41;98869.66;5065382;28;20029;-54
2022/06/23 11:51:15;;;;;;;14.15;6.35;;;;;;;28.30;48.31;98869.34;5066171;28;20021;-54
2022/06/23 11:53:55;;;;;;;13.15;6.70;;;;;;;28.09;48.37;98862.34;5065268;28;20024;-52
2022/06/23 11:56:42;;;;;;;22.13;6.78;;;;;;;28.28;47.99;98858.72;5068353;28;20434;-55
2022/06/23 11:59:27;;;;;;;13.80;7.15;;;;;;;28.01;50.50;98868.09;5067127;28;20033;-55
2022/06/23 12:01:52;;;;;;;16.67;7.35;;;;;;;28.27;47.75;98870.09;5065025;28;20039;-54
2022/06/23 12:04:50;;;;;;;21.13;7.93;;;;;;;28.79;47.22;98852.78;5037927;28;20017;-54
2022/06/23 12:07:34;;;;;;;18.33;5.88;;;;;;;29.44;45.94;98854.38;5047802;28;20040;-55
2022/06/23 12:09:59;;;;;;;13.68;6.90;;;;;;;28.84;47.10;98850.88;5068125;28;20045;-55
2022/06/23 12:12:24;;;;;;;17.60;6.40;;;;;;;28.73;46.83;98853.47;5065861;28;20128;-54
2022/06/23 12:14:53;;;;;;;13.18;5.95;;;;;;;29.70;44.12;98844.41;5038414;28;20395;-55
2022/06/23 12:17:21;;;;;;;18.38;6.07;;;;;;;30.16;43.75;98841.25;5047185;28;20025;-55
2022/06/23 12:20:24;;;;;;;15.73;7.10;;;;;;;29.45;46.56;98850.47;5062295;28;20064;-55
2022/06/23 12:23:03;;;;;;;14.07;6.63;;;;;;;28.08;48.14;98841.47;5067033;28;20020;-55
2022/06/23 12:25:36;;;;;;;18.80;7.60;;;;;;;28.27;49.47;98845.31;5066212;28;20024;-54
2022/06/23 12:28:22;;;;;;;15.43;6.75;;;;;;;28.37;49.35;98831.69;5035702;28;20053;-55